createdAt,value
2023-05-05T00:18:57.110Z,63.03
2023-05-05T00:49:00.265Z,62.56
2023-05-05T01:19:04.323Z,63.67
2023-05-05T01:49:07.503Z,64.79
2023-05-05T02:19:10.419Z,64.85
2023-05-05T02:49:14.177Z,65.45
2023-05-05T03:19:18.196Z,65.57
2023-05-05T03:49:21.420Z,65.93
2023-05-05T04:19:24.510Z,66.90
2023-05-05T04:49:27.804Z,66.86
2023-05-05T05:19:32.301Z,66.83
2023-05-05T05:49:35.082Z,66.26
2023-05-05T06:19:38.465Z,65.61
2023-05-05T06:49:41.363Z,64.16
2023-05-05T07:19:45.292Z,61.63
2023-05-05T07:49:48.101Z,61.02
2023-05-05T08:19:51.732Z,60.86
2023-05-05T08:49:54.698Z,60.90
2023-05-05T09:19:58.184Z,58.86
2023-05-05T09:50:01.523Z,56.86
2023-05-05T10:20:05.910Z,55.06
2023-05-05T10:50:09.802Z,51.43
2023-05-05T11:20:13.356Z,49.89
2023-05-05T11:50:16.803Z,46.93
2023-05-05T12:20:20.219Z,45.56
2023-05-05T12:50:23.230Z,44.77
2023-05-05T13:20:26.513Z,44.96
2023-05-05T13:50:29.406Z,44.02
2023-05-05T14:20:32.895Z,44.53
2023-05-05T14:50:35.758Z,45.79
2023-05-05T15:20:39.151Z,44.83
2023-05-05T15:50:42.066Z,45.55
2023-05-05T16:20:45.944Z,46.46
2023-05-05T16:50:49.042Z,47.53
2023-05-05T17:20:52.709Z,48.36
2023-05-05T17:50:55.582Z,49.38
2023-05-05T18:20:59.157Z,50.90
2023-05-05T18:51:02.029Z,51.71
2023-05-05T19:21:05.736Z,53.03
2023-05-05T19:51:08.740Z,53.99
2023-05-05T20:21:11.721Z,54.66
2023-05-05T20:51:14.734Z,55.65
2023-05-05T21:21:17.737Z,56.08
2023-05-05T21:51:21.266Z,57.03
2023-05-05T22:21:24.212Z,58.54
2023-05-05T22:51:27.692Z,60.36
2023-05-05T23:21:33.987Z,61.41
2023-05-05T23:51:39.801Z,61.80
